createdAt,value
2022-08-03T00:00:49.000Z,19.6
2022-08-03T00:01:55.000Z,19.9
2022-08-03T00:03:01.000Z,19.3
2022-08-03T00:04:07.000Z,19.3
2022-08-03T00:05:14.000Z,18.6
2022-08-03T00:06:20.000Z,19.6
2022-08-03T00:07:25.000Z,19
2022-08-03T00:08:31.000Z,18.6
2022-08-03T00:09:37.000Z,19.9
2022-08-03T00:10:43.000Z,19.6
2022-08-03T00:11:49.000Z,19
2022-08-03T00:14:01.000Z,19
2022-08-03T00:15:07.000Z,18.6
2022-08-03T00:16:13.000Z,18.6
2022-08-03T00:17:19.000Z,18.3
2022-08-03T00:18:25.000Z,19.6
2022-08-03T00:19:31.000Z,19.3
2022-08-03T00:20:38.000Z,19
2022-08-03T00:21:43.000Z,19.6
2022-08-03T00:22:49.000Z,19.6
2022-08-03T00:23:55.000Z,19
2022-08-03T00:25:01.000Z,18.6
2022-08-03T00:26:07.000Z,19.3
2022-08-03T00:27:13.000Z,18.6
2022-08-03T00:28:19.000Z,19.3
2022-08-03T00:29:25.000Z,19
2022-08-03T00:30:31.000Z,19.3
2022-08-03T00:31:37.000Z,20.3
2022-08-03T00:32:43.000Z,19.3
2022-08-03T00:33:50.000Z,18.6
2022-08-03T00:34:56.000Z,18.6
2022-08-03T00:36:01.000Z,19
2022-08-03T00:37:07.000Z,18.6
2022-08-03T00:38:12.000Z,19.3
2022-08-03T00:39:17.000Z,19
2022-08-03T00:40:22.000Z,19.6
2022-08-03T00:41:27.000Z,18.6
2022-08-03T00:42:33.000Z,19.9
2022-08-03T00:43:39.000Z,19.6
2022-08-03T00:44:45.000Z,19
2022-08-03T00:45:52.000Z,19
2022-08-03T00:46:58.000Z,19
2022-08-03T00:48:04.000Z,19.3
2022-08-03T00:49:10.000Z,19.3
2022-08-03T00:50:16.000Z,19.3
2022-08-03T00:51:22.000Z,19.6
2022-08-03T00:52:28.000Z,19.6
2022-08-03T00:53:34.000Z,18.6
2022-08-03T00:54:40.000Z,18.3
2022-08-03T00:55:46.000Z,19.3
2022-08-03T00:56:51.000Z,19.9
2022-08-03T00:57:57.000Z,20.3
2022-08-03T00:59:04.000Z,19
2022-08-03T01:00:10.000Z,19.3
2022-08-03T01:01:16.000Z,19
2022-08-03T01:02:22.000Z,19.6
2022-08-03T01:03:28.000Z,20.3
2022-08-03T01:04:34.000Z,19.3
2022-08-03T01:05:40.000Z,18.6
2022-08-03T01:06:46.000Z,19
2022-08-03T01:08:58.000Z,19
2022-08-03T01:10:04.000Z,19
2022-08-03T01:11:10.000Z,19.3
2022-08-03T01:12:15.000Z,19.6
2022-08-03T01:13:21.000Z,18.6
2022-08-03T01:14:26.000Z,19.3
2022-08-03T01:15:31.000Z,19
2022-08-03T01:16:36.000Z,19.6
2022-08-03T01:17:42.000Z,19
2022-08-03T01:18:48.000Z,19
2022-08-03T01:19:54.000Z,19.6
2022-08-03T01:21:00.000Z,18.3
2022-08-03T01:22:06.000Z,19.3
2022-08-03T01:23:12.000Z,18
2022-08-03T01:24:18.000Z,19
2022-08-03T01:25:24.000Z,19.6
2022-08-03T01:26:30.000Z,19.3
2022-08-03T01:27:37.000Z,19
2022-08-03T01:28:43.000Z,19.3
2022-08-03T01:29:49.000Z,19.6
2022-08-03T01:30:54.000Z,18.6
2022-08-03T01:32:00.000Z,19.3
2022-08-03T01:33:06.000Z,19.3
2022-08-03T01:34:12.000Z,19.6
2022-08-03T01:35:18.000Z,19
2022-08-03T01:36:24.000Z,18.6
2022-08-03T01:37:30.000Z,19.3
2022-08-03T01:38:36.000Z,18.6
2022-08-03T01:39:42.000Z,19.3
2022-08-03T01:40:49.000Z,19.9
2022-08-03T01:41:55.000Z,19.3
2022-08-03T01:43:00.000Z,19.3
2022-08-03T01:44:05.000Z,19
2022-08-03T01:45:10.000Z,18.3
2022-08-03T01:46:15.000Z,19
2022-08-03T01:47:21.000Z,19.6
2022-08-03T01:48:27.000Z,19
2022-08-03T01:49:33.000Z,19
2022-08-03T01:50:39.000Z,19.3
2022-08-03T01:51:45.000Z,18.3
2022-08-03T01:52:52.000Z,19.3
2022-08-03T01:53:58.000Z,19
2022-08-03T01:55:04.000Z,18.6
2022-08-03T01:56:10.000Z,19.6
2022-08-03T01:57:16.000Z,18.6
2022-08-03T01:58:22.000Z,18.6
2022-08-03T01:59:28.000Z,19
2022-08-03T02:00:33.000Z,19
2022-08-03T02:02:45.000Z,18.6
2022-08-03T02:03:51.000Z,18.6
2022-08-03T02:04:57.000Z,18.3
2022-08-03T02:06:04.000Z,18.3
2022-08-03T02:07:10.000Z,19
2022-08-03T02:08:16.000Z,18.3
2022-08-03T02:09:22.000Z,18.3
2022-08-03T02:10:28.000Z,19.6
2022-08-03T02:11:34.000Z,18.3
2022-08-03T02:12:40.000Z,19.3
2022-08-03T02:13:46.000Z,18.6
2022-08-03T02:14:52.000Z,18.6
2022-08-03T02:15:57.000Z,19.3
2022-08-03T02:17:03.000Z,18.6
2022-08-03T02:18:09.000Z,18.6
2022-08-03T02:19:15.000Z,18.3
2022-08-03T02:20:21.000Z,19.6
2022-08-03T02:21:28.000Z,18.3
2022-08-03T02:22:33.000Z,19.3
2022-08-03T02:23:38.000Z,18.6
2022-08-03T02:24:43.000Z,18
2022-08-03T02:25:48.000Z,18.6
2022-08-03T02:26:54.000Z,18
2022-08-03T02:28:00.000Z,19.3
2022-08-03T02:29:06.000Z,19
2022-08-03T02:30:12.000Z,19.3
2022-08-03T02:31:18.000Z,19.6
2022-08-03T02:32:24.000Z,19.3
2022-08-03T02:33:30.000Z,19
2022-08-03T02:34:37.000Z,19
2022-08-03T02:35:43.000Z,18.6
2022-08-03T02:36:49.000Z,18.3
2022-08-03T02:37:55.000Z,18.6
2022-08-03T02:39:01.000Z,19
2022-08-03T02:40:06.000Z,18.6
2022-08-03T02:41:12.000Z,19.3
2022-08-03T02:42:18.000Z,18.6
2022-08-03T02:43:24.000Z,18.6
2022-08-03T02:44:30.000Z,18.3
2022-08-03T02:45:36.000Z,19.3
2022-08-03T02:47:48.000Z,18.3
2022-08-03T02:48:54.000Z,18.6
2022-08-03T02:49:59.000Z,18.3
2022-08-03T02:51:04.000Z,18.3
2022-08-03T02:52:09.000Z,19.6
2022-08-03T02:53:15.000Z,18.6
2022-08-03T02:54:21.000Z,18.6
2022-08-03T02:55:27.000Z,19.3
2022-08-03T02:56:33.000Z,18.6
2022-08-03T02:58:45.000Z,17.4
2022-08-03T02:59:52.000Z,18.6
2022-08-03T03:00:58.000Z,19
2022-08-03T03:02:04.000Z,19
2022-08-03T03:03:10.000Z,18
2022-08-03T03:04:16.000Z,19
2022-08-03T03:05:22.000Z,18.6
2022-08-03T03:06:27.000Z,19.3
2022-08-03T03:07:33.000Z,18.3
2022-08-03T03:08:39.000Z,19
2022-08-03T03:09:45.000Z,18.6
2022-08-03T03:10:51.000Z,18.6
2022-08-03T03:11:57.000Z,18.6
2022-08-03T03:13:03.000Z,19.3
2022-08-03T03:14:09.000Z,19.9
2022-08-03T03:15:15.000Z,18.6
2022-08-03T03:16:20.000Z,19.6
2022-08-03T03:17:26.000Z,18
2022-08-03T03:18:31.000Z,18.3
2022-08-03T03:19:36.000Z,18
2022-08-03T03:20:42.000Z,18.3
2022-08-03T03:21:48.000Z,18
2022-08-03T03:22:54.000Z,18.3
2022-08-03T03:24:00.000Z,18.3
2022-08-03T03:25:06.000Z,19
2022-08-03T03:26:12.000Z,18.6
2022-08-03T03:27:18.000Z,18
2022-08-03T03:28:24.000Z,18.6
2022-08-03T03:29:31.000Z,19
2022-08-03T03:30:37.000Z,17
2022-08-03T03:31:43.000Z,18.6
2022-08-03T03:32:49.000Z,19
2022-08-03T03:33:54.000Z,18.6
2022-08-03T03:35:00.000Z,18.3
2022-08-03T03:36:06.000Z,18.6
2022-08-03T03:37:12.000Z,19.9
2022-08-03T03:38:18.000Z,18.3
2022-08-03T03:39:24.000Z,18
2022-08-03T03:40:30.000Z,18
2022-08-03T03:41:36.000Z,18.3
2022-08-03T03:42:41.000Z,18.6
2022-08-03T03:43:47.000Z,18.6
2022-08-03T03:44:52.000Z,19
2022-08-03T03:45:57.000Z,19
2022-08-03T03:47:03.000Z,18.6
2022-08-03T03:48:09.000Z,19.3
2022-08-03T03:49:15.000Z,18
2022-08-03T03:50:21.000Z,19
2022-08-03T03:51:27.000Z,18.3
2022-08-03T03:52:33.000Z,18.6
2022-08-03T03:53:39.000Z,18.3
2022-08-03T03:54:46.000Z,18
2022-08-03T03:55:52.000Z,19.3
2022-08-03T03:56:58.000Z,19.3
2022-08-03T03:58:04.000Z,18.3
2022-08-03T03:59:10.000Z,19.9
2022-08-03T04:00:15.000Z,19.3
2022-08-03T04:01:21.000Z,19
2022-08-03T04:02:27.000Z,18.3
2022-08-03T04:04:39.000Z,18.6
2022-08-03T04:05:45.000Z,18.6
2022-08-03T04:06:51.000Z,19.3
2022-08-03T04:07:58.000Z,18.6
2022-08-03T04:09:03.000Z,18
2022-08-03T04:10:08.000Z,18.3
2022-08-03T04:11:14.000Z,19.3
2022-08-03T04:12:20.000Z,18.3
2022-08-03T04:13:25.000Z,18.6
2022-08-03T04:15:36.000Z,18.3
2022-08-03T04:16:42.000Z,19
2022-08-03T04:17:48.000Z,19.6
2022-08-03T04:18:55.000Z,18.6
2022-08-03T04:20:01.000Z,18
2022-08-03T04:21:07.000Z,18.3
2022-08-03T04:22:13.000Z,18.3
2022-08-03T04:23:19.000Z,19
2022-08-03T04:24:25.000Z,19
2022-08-03T04:25:31.000Z,18.6
2022-08-03T04:26:37.000Z,19
2022-08-03T04:27:43.000Z,18.3
2022-08-03T04:28:48.000Z,17.7
2022-08-03T04:29:54.000Z,18.3
2022-08-03T04:31:00.000Z,17.7
2022-08-03T04:32:06.000Z,17
2022-08-03T04:33:12.000Z,18
2022-08-03T04:34:19.000Z,19
2022-08-03T04:35:25.000Z,18.6
2022-08-03T04:37:37.000Z,18.3
2022-08-03T04:38:42.000Z,18.6
2022-08-03T04:39:47.000Z,18.3
2022-08-03T04:40:52.000Z,19.6
2022-08-03T04:41:57.000Z,18.6
2022-08-03T04:43:03.000Z,19.3
2022-08-03T04:44:09.000Z,19
2022-08-03T04:45:15.000Z,18
2022-08-03T04:46:21.000Z,18.6
2022-08-03T04:47:28.000Z,18.6
2022-08-03T04:48:34.000Z,19.3
2022-08-03T04:49:40.000Z,19
2022-08-03T04:50:46.000Z,17.7
2022-08-03T04:51:52.000Z,18
2022-08-03T04:52:58.000Z,19
2022-08-03T04:54:04.000Z,18
2022-08-03T04:55:10.000Z,18.3
2022-08-03T04:56:15.000Z,18.6
2022-08-03T04:57:21.000Z,18.3
2022-08-03T04:58:27.000Z,18.6
2022-08-03T04:59:33.000Z,18.3
2022-08-03T05:00:40.000Z,17.7
2022-08-03T05:01:46.000Z,18.3
2022-08-03T05:02:52.000Z,18.3
2022-08-03T05:03:57.000Z,18
2022-08-03T05:05:02.000Z,18
2022-08-03T05:06:08.000Z,18.3
2022-08-03T05:07:13.000Z,19
2022-08-03T05:08:18.000Z,17.7
2022-08-03T05:09:24.000Z,18.6
2022-08-03T05:10:30.000Z,18.3
2022-08-03T05:11:36.000Z,18
2022-08-03T05:12:42.000Z,18.6
2022-08-03T05:13:49.000Z,18
2022-08-03T05:14:55.000Z,18.3
2022-08-03T05:16:01.000Z,18.3
2022-08-03T05:17:07.000Z,18.6
2022-08-03T05:18:13.000Z,18.3
2022-08-03T05:19:19.000Z,17.7
2022-08-03T05:21:31.000Z,18.3
2022-08-03T05:22:36.000Z,18.3
2022-08-03T05:23:42.000Z,18
2022-08-03T05:24:48.000Z,19
2022-08-03T05:25:55.000Z,18.6
2022-08-03T05:27:01.000Z,17.4
2022-08-03T05:28:07.000Z,18.6
2022-08-03T05:29:13.000Z,18.6
2022-08-03T05:30:19.000Z,18.3
2022-08-03T05:31:25.000Z,18.6
2022-08-03T05:32:31.000Z,18.3
2022-08-03T05:33:37.000Z,18.3
2022-08-03T05:34:43.000Z,18.6
2022-08-03T05:35:49.000Z,17.7
2022-08-03T05:36:54.000Z,19
2022-08-03T05:38:00.000Z,18
2022-08-03T05:39:06.000Z,18.3
2022-08-03T05:40:12.000Z,18.6
2022-08-03T05:41:19.000Z,18.3
2022-08-03T05:42:25.000Z,18
2022-08-03T05:43:31.000Z,18
2022-08-03T05:44:37.000Z,18
2022-08-03T05:45:43.000Z,18
2022-08-03T05:46:49.000Z,17.7
2022-08-03T05:47:55.000Z,18.3
2022-08-03T05:49:01.000Z,18.6
2022-08-03T05:50:07.000Z,18.3
2022-08-03T05:51:12.000Z,17.7
2022-08-03T05:52:18.000Z,18
2022-08-03T05:53:24.000Z,18
2022-08-03T05:54:30.000Z,17.4
2022-08-03T05:55:36.000Z,19
2022-08-03T05:56:43.000Z,18.3
2022-08-03T05:57:49.000Z,19.3
2022-08-03T05:58:55.000Z,17
2022-08-03T06:00:00.000Z,18.3
2022-08-03T06:01:06.000Z,18.6
2022-08-03T06:02:11.000Z,18.6
2022-08-03T06:03:16.000Z,18.6
2022-08-03T06:04:21.000Z,18.6
2022-08-03T06:05:27.000Z,18
2022-08-03T06:06:33.000Z,17.4
2022-08-03T06:07:39.000Z,18.6
2022-08-03T06:08:45.000Z,17.4
2022-08-03T06:09:52.000Z,19
2022-08-03T06:10:58.000Z,17
2022-08-03T06:12:04.000Z,18.6
2022-08-03T06:13:10.000Z,18.3
2022-08-03T06:14:16.000Z,18
2022-08-03T06:15:22.000Z,18
2022-08-03T06:16:28.000Z,17.7
2022-08-03T06:17:34.000Z,18.6
2022-08-03T06:18:39.000Z,18.3
2022-08-03T06:19:45.000Z,18.3
2022-08-03T06:20:51.000Z,18
2022-08-03T06:21:57.000Z,17.7
2022-08-03T06:23:03.000Z,18.3
2022-08-03T06:24:09.000Z,18.3
2022-08-03T06:25:16.000Z,18
2022-08-03T06:27:27.000Z,18.6
2022-08-03T06:28:32.000Z,17.7
2022-08-03T06:29:37.000Z,18.3
2022-08-03T06:30:43.000Z,17.7
2022-08-03T06:31:48.000Z,18
2022-08-03T06:32:53.000Z,18.6
2022-08-03T06:33:59.000Z,18.6
2022-08-03T06:35:05.000Z,18.3
2022-08-03T06:36:11.000Z,18.3
2022-08-03T06:38:24.000Z,18.3
2022-08-03T06:39:30.000Z,18
2022-08-03T06:40:36.289Z,19
2022-08-03T06:41:42.000Z,17.4
2022-08-03T06:42:48.000Z,17.4
2022-08-03T06:43:54.000Z,18
2022-08-03T06:45:00.000Z,17.4
2022-08-03T06:46:06.000Z,18
2022-08-03T06:47:11.000Z,19
2022-08-03T06:48:17.000Z,17.7
2022-08-03T06:49:23.000Z,18
2022-08-03T06:50:29.000Z,18.6
2022-08-03T06:51:36.000Z,18.6
2022-08-03T06:52:42.000Z,18.6
2022-08-03T06:53:48.000Z,18.3
2022-08-03T06:54:54.000Z,18.6
2022-08-03T06:56:00.000Z,19
2022-08-03T06:57:06.000Z,17.4
2022-08-03T06:58:12.000Z,18.6
2022-08-03T06:59:18.000Z,17.7
2022-08-03T07:00:24.000Z,18.3
2022-08-03T07:01:29.000Z,17.4
2022-08-03T07:02:35.000Z,18
2022-08-03T07:03:41.000Z,17.7
2022-08-03T07:04:47.000Z,17.4
2022-08-03T07:05:53.000Z,18
2022-08-03T07:07:00.000Z,18.6
2022-08-03T07:08:06.000Z,18.3
2022-08-03T07:09:12.000Z,17.7
2022-08-03T07:10:18.000Z,18.6
2022-08-03T07:11:24.000Z,18.6
2022-08-03T07:12:30.000Z,19.3
2022-08-03T07:13:36.000Z,18.3
2022-08-03T07:14:42.000Z,18
2022-08-03T07:15:47.000Z,18.6
2022-08-03T07:16:53.000Z,18.3
2022-08-03T07:17:59.000Z,19
2022-08-03T07:19:05.000Z,18.6
2022-08-03T07:20:11.000Z,18
2022-08-03T07:21:17.000Z,18.6
2022-08-03T07:22:24.000Z,18.3
2022-08-03T07:23:30.000Z,18.3
2022-08-03T07:24:36.000Z,17.7
2022-08-03T07:25:42.000Z,18
2022-08-03T07:26:48.000Z,18.6
2022-08-03T07:27:54.000Z,18.6
2022-08-03T07:29:00.000Z,18.3
2022-08-03T07:30:05.000Z,18.6
2022-08-03T07:31:11.000Z,17.4
2022-08-03T07:33:23.000Z,18
2022-08-03T07:34:29.000Z,17.7
2022-08-03T07:35:34.000Z,17.4
2022-08-03T07:36:40.000Z,18.3
2022-08-03T07:37:45.000Z,18.6
2022-08-03T07:38:50.000Z,17.7
2022-08-03T07:39:56.000Z,18.6
2022-08-03T07:41:02.000Z,18.6
2022-08-03T07:42:08.000Z,18.3
2022-08-03T07:44:20.000Z,18
2022-08-03T07:45:26.000Z,18.6
2022-08-03T07:46:32.000Z,18.6
2022-08-03T07:47:38.000Z,18.3
2022-08-03T07:48:45.000Z,19
2022-08-03T07:49:51.000Z,18.3
2022-08-03T07:50:57.000Z,19
2022-08-03T07:52:03.000Z,17.7
2022-08-03T07:53:08.000Z,18.6
2022-08-03T07:55:20.000Z,18.3
2022-08-03T07:56:25.000Z,18.6
2022-08-03T07:57:30.000Z,18.6
2022-08-03T07:58:36.000Z,18.3
2022-08-03T07:59:43.000Z,17.7
2022-08-03T08:00:49.000Z,18
2022-08-03T08:01:55.000Z,18.6
2022-08-03T08:03:01.000Z,18.6
2022-08-03T08:04:07.000Z,18.6
2022-08-03T08:05:13.000Z,18
2022-08-03T08:06:19.000Z,18.3
2022-08-03T08:07:25.000Z,18.6
2022-08-03T08:08:30.000Z,18.3
2022-08-03T08:09:35.000Z,18.6
2022-08-03T08:10:41.000Z,17.7
2022-08-03T08:11:47.000Z,17.4
2022-08-03T08:12:54.000Z,18.3
2022-08-03T08:14:00.000Z,17.4
2022-08-03T08:15:06.000Z,18.3
2022-08-03T08:16:12.000Z,17.7
2022-08-03T08:17:18.000Z,18.3
2022-08-03T08:18:24.000Z,19
2022-08-03T08:19:30.000Z,18
2022-08-03T08:20:36.000Z,18.6
2022-08-03T08:21:42.000Z,18
2022-08-03T08:22:48.000Z,18
2022-08-03T08:23:53.000Z,18.6
2022-08-03T08:24:59.000Z,18.6
2022-08-03T08:26:06.000Z,19
2022-08-03T08:27:12.000Z,17.7
2022-08-03T08:28:18.000Z,17.4
2022-08-03T08:29:24.000Z,18.3
2022-08-03T08:30:30.000Z,18.3
2022-08-03T08:32:42.000Z,18.3
2022-08-03T08:33:48.000Z,17.4
2022-08-03T08:34:54.000Z,18
2022-08-03T08:36:00.000Z,19
2022-08-03T08:37:06.000Z,17.7
2022-08-03T08:39:17.000Z,18
2022-08-03T08:40:23.000Z,19
2022-08-03T08:41:30.000Z,18.6
2022-08-03T08:42:36.000Z,18.6
2022-08-03T08:43:42.000Z,18.3
2022-08-03T08:44:48.000Z,19
2022-08-03T08:45:54.000Z,18.6
2022-08-03T08:47:00.000Z,18.6
2022-08-03T08:48:06.000Z,18.3
2022-08-03T08:50:18.000Z,18
2022-08-03T08:51:23.000Z,18
2022-08-03T08:52:28.000Z,17.7
2022-08-03T08:53:34.000Z,18.6
2022-08-03T08:54:40.000Z,18.6
2022-08-03T08:55:46.000Z,18
2022-08-03T08:56:53.000Z,18
2022-08-03T08:57:59.000Z,18
2022-08-03T08:59:05.000Z,18.3
2022-08-03T09:00:11.000Z,17.7
2022-08-03T09:01:17.000Z,18
2022-08-03T09:02:23.000Z,18
2022-08-03T09:03:28.000Z,18.3
2022-08-03T09:04:33.000Z,18.3
2022-08-03T09:05:39.000Z,18.6
2022-08-03T09:06:45.000Z,18
2022-08-03T09:07:51.000Z,18.6
2022-08-03T09:08:58.000Z,18.6
2022-08-03T09:10:04.000Z,18.6
2022-08-03T09:11:10.000Z,18
2022-08-03T09:12:16.000Z,19.3
2022-08-03T09:13:22.000Z,18.3
2022-08-03T09:14:28.000Z,18.3
2022-08-03T09:15:34.000Z,18.6
2022-08-03T09:16:40.000Z,18.6
2022-08-03T09:17:46.000Z,18
2022-08-03T09:18:51.000Z,19
2022-08-03T09:19:57.000Z,18
2022-08-03T09:21:03.000Z,18
2022-08-03T09:22:09.000Z,18.3
2022-08-03T09:23:16.000Z,18
2022-08-03T09:24:22.000Z,18
2022-08-03T09:25:28.000Z,18.3
2022-08-03T09:26:34.000Z,18.6
2022-08-03T09:27:40.000Z,19
2022-08-03T09:28:46.000Z,18.6
2022-08-03T09:29:52.000Z,19
2022-08-03T09:30:58.000Z,18.3
2022-08-03T09:32:04.000Z,18.3
2022-08-03T09:34:15.000Z,18
2022-08-03T09:35:21.000Z,18
2022-08-03T09:36:27.000Z,18
2022-08-03T09:37:34.000Z,18
2022-08-03T09:38:40.000Z,18
2022-08-03T09:39:46.000Z,17.7
2022-08-03T09:40:52.000Z,19.3
2022-08-03T09:41:58.000Z,17.7
2022-08-03T09:43:04.000Z,19
2022-08-03T09:44:09.000Z,18.3
2022-08-03T09:45:15.000Z,18
2022-08-03T09:46:21.000Z,18.3
2022-08-03T09:47:27.000Z,17.7
2022-08-03T09:48:34.000Z,18.3
2022-08-03T09:49:40.000Z,18.6
2022-08-03T09:50:45.000Z,17.7
2022-08-03T09:51:50.000Z,19
2022-08-03T09:52:56.000Z,18.6
2022-08-03T09:54:02.000Z,18.6
2022-08-03T09:55:08.000Z,19
2022-08-03T09:56:14.000Z,18.6
2022-08-03T09:57:20.000Z,18
2022-08-03T09:58:26.000Z,18.3
2022-08-03T09:59:32.000Z,19.3
2022-08-03T10:00:39.000Z,19.3
2022-08-03T10:01:45.000Z,19
2022-08-03T10:02:51.000Z,18.6
2022-08-03T10:03:57.000Z,17.7
2022-08-03T10:05:03.000Z,19
2022-08-03T10:06:08.000Z,19
2022-08-03T10:07:14.000Z,18.6
2022-08-03T10:08:20.000Z,18.3
2022-08-03T10:09:26.000Z,18.3
2022-08-03T10:10:32.000Z,18
2022-08-03T10:11:38.000Z,19
2022-08-03T10:12:44.000Z,17.7
2022-08-03T10:13:49.000Z,18.3
2022-08-03T10:14:56.000Z,18
2022-08-03T10:16:02.000Z,18.3
2022-08-03T10:17:08.000Z,18.3
2022-08-03T10:18:14.000Z,19
2022-08-03T10:19:20.000Z,18
2022-08-03T10:20:26.000Z,18.6
2022-08-03T10:21:32.000Z,19
2022-08-03T10:22:38.000Z,18.3
2022-08-03T10:23:44.000Z,18
2022-08-03T10:24:50.000Z,19
2022-08-03T10:25:56.000Z,17.7
2022-08-03T10:27:02.000Z,18.3
2022-08-03T10:29:13.000Z,18.3
2022-08-03T10:30:20.000Z,19
2022-08-03T10:31:26.000Z,19
2022-08-03T10:32:32.000Z,18.3
2022-08-03T10:33:38.000Z,19.3
2022-08-03T10:34:44.000Z,18.6
2022-08-03T10:35:50.000Z,18.3
2022-08-03T10:36:56.000Z,18.6
2022-08-03T10:38:02.000Z,19
2022-08-03T10:39:08.000Z,19
2022-08-03T10:40:14.000Z,19.3
2022-08-03T10:41:20.000Z,18
2022-08-03T10:42:26.000Z,18.6
2022-08-03T10:43:31.000Z,19
2022-08-03T10:44:38.000Z,19
2022-08-03T10:45:44.000Z,18
2022-08-03T10:46:50.000Z,18
2022-08-03T10:47:56.000Z,18.3
2022-08-03T10:49:02.000Z,17.7
2022-08-03T10:50:08.000Z,18
2022-08-03T10:51:14.000Z,19
2022-08-03T10:52:20.000Z,19
2022-08-03T10:53:26.000Z,18.6
2022-08-03T10:54:32.000Z,18
2022-08-03T10:55:38.000Z,19.3
2022-08-03T10:56:44.000Z,17.7
2022-08-03T10:57:50.000Z,19.3
2022-08-03T10:58:56.000Z,18.6
2022-08-03T11:00:02.000Z,19
2022-08-03T11:01:08.000Z,18.3
2022-08-03T11:02:14.000Z,18.6
2022-08-03T11:03:20.000Z,18.6
2022-08-03T11:04:26.000Z,19.3
2022-08-03T11:05:32.000Z,19.9
2022-08-03T11:06:38.000Z,18.6
2022-08-03T11:07:44.000Z,19.3
2022-08-03T11:08:50.000Z,19
2022-08-03T11:09:56.000Z,18.3
2022-08-03T11:11:02.000Z,18.6
2022-08-03T11:12:07.000Z,19.3
2022-08-03T11:13:14.000Z,18.3
2022-08-03T11:14:20.000Z,18.6
2022-08-03T11:15:26.000Z,19
2022-08-03T11:16:32.000Z,19
2022-08-03T11:17:38.000Z,19
2022-08-03T11:18:44.000Z,18.6
2022-08-03T11:19:50.000Z,19
2022-08-03T11:20:56.000Z,18.3
2022-08-03T11:22:02.000Z,18.3
2022-08-03T11:24:14.000Z,18.6
2022-08-03T11:25:20.000Z,18.6
2022-08-03T11:26:25.000Z,19
2022-08-03T11:27:31.000Z,18.6
2022-08-03T11:28:38.000Z,18.6
2022-08-03T11:29:44.000Z,18.6
2022-08-03T11:30:50.000Z,19.3
2022-08-03T11:31:56.000Z,19.3
2022-08-03T11:33:02.000Z,19
2022-08-03T11:34:08.000Z,18.3
2022-08-03T11:35:14.000Z,19.6
2022-08-03T11:36:20.000Z,18.3
2022-08-03T11:37:25.000Z,18.3
2022-08-03T11:38:31.000Z,19
2022-08-03T11:39:36.000Z,18.6
2022-08-03T11:40:41.000Z,18.6
2022-08-03T11:41:48.000Z,18.3
2022-08-03T11:42:54.000Z,19.3
2022-08-03T11:44:00.000Z,18
2022-08-03T11:45:06.000Z,18.6
2022-08-03T11:46:12.000Z,18.3
2022-08-03T11:47:18.000Z,18.6
2022-08-03T11:48:24.000Z,19.3
2022-08-03T11:49:30.000Z,18.6
2022-08-03T11:50:36.000Z,18
2022-08-03T11:51:42.000Z,19
2022-08-03T11:52:48.000Z,19.3
2022-08-03T11:53:54.000Z,18.6
2022-08-03T11:54:59.000Z,19.3
2022-08-03T11:56:05.000Z,19.3
2022-08-03T11:57:12.000Z,20.6
2022-08-03T11:58:18.000Z,19.6
2022-08-03T11:59:24.000Z,18.6
2022-08-03T12:00:30.000Z,19.3
2022-08-03T12:01:36.000Z,19.3
2022-08-03T12:02:41.000Z,19
2022-08-03T12:03:46.000Z,19.6
2022-08-03T12:04:52.000Z,19.3
2022-08-03T12:05:57.000Z,19.3
2022-08-03T12:07:02.000Z,19
2022-08-03T12:08:08.000Z,18.6
2022-08-03T12:09:15.000Z,19
2022-08-03T12:10:21.000Z,19
2022-08-03T12:11:27.000Z,19.3
2022-08-03T12:12:33.000Z,19.6
2022-08-03T12:13:39.000Z,19.3
2022-08-03T12:14:45.000Z,19.3
2022-08-03T12:15:51.000Z,19.3
2022-08-03T12:16:57.000Z,19.3
2022-08-03T12:19:09.000Z,18.6
2022-08-03T12:20:15.000Z,19
2022-08-03T12:21:20.000Z,19
2022-08-03T12:22:26.000Z,19.6
2022-08-03T12:23:33.000Z,18.3
2022-08-03T12:24:39.000Z,18.6
2022-08-03T12:25:45.000Z,19
2022-08-03T12:26:51.000Z,19.6
2022-08-03T12:27:57.000Z,18.6
2022-08-03T12:30:09.000Z,19.6
2022-08-03T12:31:15.000Z,19.6
2022-08-03T12:32:21.000Z,18.6
2022-08-03T12:33:27.000Z,18.6
2022-08-03T12:34:33.000Z,19.3
2022-08-03T12:35:38.000Z,18.6
2022-08-03T12:36:44.000Z,19.9
2022-08-03T12:37:50.000Z,19.6
2022-08-03T12:38:57.000Z,18.6
2022-08-03T12:40:03.000Z,19.3
2022-08-03T12:41:09.000Z,20.3
2022-08-03T12:42:15.000Z,19.3
2022-08-03T12:43:21.000Z,19.6
2022-08-03T12:44:27.000Z,19.3
2022-08-03T12:45:33.000Z,18.6
2022-08-03T12:46:39.000Z,19.3
2022-08-03T12:47:45.000Z,18.6
2022-08-03T12:48:51.000Z,19.9
2022-08-03T12:49:56.000Z,19.3
2022-08-03T12:51:02.000Z,19.3
2022-08-03T12:52:08.000Z,19.6
2022-08-03T12:53:15.000Z,19.3
2022-08-03T12:54:21.000Z,19.3
2022-08-03T12:55:27.000Z,19
2022-08-03T12:56:33.000Z,19
2022-08-03T12:57:39.000Z,19.3
2022-08-03T12:58:45.000Z,19.3
2022-08-03T12:59:51.000Z,19
2022-08-03T13:00:57.000Z,19.3
2022-08-03T13:02:03.000Z,19.6
2022-08-03T13:03:09.000Z,19.6
2022-08-03T13:04:14.000Z,19.3
2022-08-03T13:05:21.000Z,20.3
2022-08-03T13:06:27.000Z,19.9
2022-08-03T13:07:33.000Z,19.9
2022-08-03T13:08:39.000Z,19
2022-08-03T13:09:45.000Z,19.6
2022-08-03T13:10:51.000Z,19.3
2022-08-03T13:11:57.000Z,19.3
2022-08-03T13:13:03.000Z,20.9
2022-08-03T13:14:09.000Z,20.3
2022-08-03T13:15:15.000Z,19.6
2022-08-03T13:16:21.000Z,19.9
2022-08-03T13:17:27.000Z,19.6
2022-08-03T13:18:32.000Z,19.6
2022-08-03T13:19:38.000Z,19.9
2022-08-03T13:20:45.000Z,19.3
2022-08-03T13:21:51.000Z,20.3
2022-08-03T13:22:57.000Z,19.6
2022-08-03T13:24:03.000Z,19.3
2022-08-03T13:25:09.000Z,20.3
2022-08-03T13:26:15.000Z,19.3
2022-08-03T13:27:21.000Z,19.9
2022-08-03T13:28:27.000Z,19.6
2022-08-03T13:29:33.000Z,19.3
2022-08-03T13:30:39.000Z,19.3
2022-08-03T13:31:45.000Z,19.6
2022-08-03T13:32:50.000Z,19.9
2022-08-03T13:33:56.000Z,19.9
2022-08-03T13:35:02.000Z,19.9
2022-08-03T13:36:09.000Z,19.6
2022-08-03T13:37:15.000Z,19.6
2022-08-03T13:38:21.000Z,19.9
2022-08-03T13:39:27.000Z,19.9
2022-08-03T13:40:33.000Z,19.3
2022-08-03T13:41:39.000Z,19.9
2022-08-03T13:42:45.000Z,20.3
2022-08-03T13:43:51.000Z,19.6
2022-08-03T13:44:57.000Z,19.9
2022-08-03T13:46:03.000Z,20.3
2022-08-03T13:47:09.000Z,19.6
2022-08-03T13:48:14.000Z,20.6
2022-08-03T13:49:21.000Z,19.9
2022-08-03T13:50:27.000Z,20.6
2022-08-03T13:51:33.000Z,19.9
2022-08-03T13:52:39.000Z,20.9
2022-08-03T13:53:45.000Z,19.6
2022-08-03T13:54:51.000Z,20.3
2022-08-03T13:55:57.000Z,19.9
2022-08-03T13:58:08.000Z,19.9
2022-08-03T13:59:13.000Z,20.3
2022-08-03T14:00:19.000Z,20.3
2022-08-03T14:01:25.000Z,20.3
2022-08-03T14:02:31.000Z,19.9
2022-08-03T14:03:37.000Z,20.3
2022-08-03T14:04:44.000Z,19.9
2022-08-03T14:05:50.000Z,19
2022-08-03T14:06:56.000Z,19.9
2022-08-03T14:09:08.000Z,19.9
2022-08-03T14:10:14.000Z,20.9
2022-08-03T14:11:20.000Z,19.9
2022-08-03T14:12:26.000Z,19.6
2022-08-03T14:13:32.000Z,19.9
2022-08-03T14:14:37.000Z,19.6
2022-08-03T14:15:43.000Z,19.9
2022-08-03T14:16:49.000Z,20.9
2022-08-03T14:17:55.000Z,19.6
2022-08-03T14:20:08.000Z,20.6
2022-08-03T14:21:13.000Z,20.3
2022-08-03T14:22:18.000Z,20.9
2022-08-03T14:23:24.000Z,20.3
2022-08-03T14:24:30.000Z,20.6
2022-08-03T14:25:36.000Z,20.9
2022-08-03T14:26:42.000Z,20.6
2022-08-03T14:27:48.000Z,20.3
2022-08-03T14:28:54.000Z,20.3
2022-08-03T14:30:00.000Z,20.3
2022-08-03T14:31:06.000Z,20.3
2022-08-03T14:32:13.000Z,20.3
2022-08-03T14:33:18.000Z,19.9
2022-08-03T14:34:23.000Z,20.9
2022-08-03T14:35:29.000Z,20.3
2022-08-03T14:36:35.000Z,21.2
2022-08-03T14:37:41.000Z,21.2
2022-08-03T14:38:47.000Z,20.9
2022-08-03T14:39:53.000Z,21.2
2022-08-03T14:40:59.000Z,20.3
2022-08-03T14:42:05.000Z,20.6
2022-08-03T14:43:11.000Z,20.6
2022-08-03T14:44:17.000Z,19.6
2022-08-03T14:45:24.000Z,21.2
2022-08-03T14:46:30.000Z,21.5
2022-08-03T14:47:36.000Z,20.6
2022-08-03T14:48:41.000Z,20.3
2022-08-03T14:49:47.000Z,20.6
2022-08-03T14:50:53.000Z,20.6
2022-08-03T14:51:59.000Z,20.9
2022-08-03T14:53:05.000Z,20.9
2022-08-03T14:54:11.000Z,19.9
2022-08-03T14:55:17.000Z,21.5
2022-08-03T14:56:23.000Z,20.3
2022-08-03T14:57:29.000Z,20.3
2022-08-03T14:58:35.000Z,21.2
2022-08-03T14:59:41.000Z,19.9
2022-08-03T15:00:48.000Z,20.6
2022-08-03T15:01:54.000Z,20.9
2022-08-03T15:04:05.000Z,20.3
2022-08-03T15:05:11.000Z,20.9
2022-08-03T15:06:17.000Z,20.9
2022-08-03T15:07:23.000Z,20.9
2022-08-03T15:08:29.000Z,21.2
2022-08-03T15:09:35.000Z,20.6
2022-08-03T15:10:41.000Z,20.9
2022-08-03T15:11:47.000Z,20.3
2022-08-03T15:12:54.000Z,21.5
2022-08-03T15:14:00.000Z,20.9
2022-08-03T15:15:06.000Z,21.2
2022-08-03T15:16:12.000Z,20.9
2022-08-03T15:17:17.000Z,21.5
2022-08-03T15:18:23.000Z,22.2
2022-08-03T15:19:29.000Z,20.6
2022-08-03T15:20:35.000Z,20.9